Terminal Aerodrome Forecast
Issued by NWS

Home | Current Version | Previous Version | Graphics & Text | Print | Product List | Glossary On
Versions: 1 2 3 4 5 6 7 8 9 10 11 12 13 14 15 16
000
FTUS43 KFGF 071700
TAFBJI
TAF
KBJI 071739Z 0718/0818 30014KT P6SM BKN060
     FM072100 29012KT P6SM VCTS BKN050CB
     FM080300 29007KT P6SM SCT050=

USA.gov is the U.S. government's official web portal to all federal, state and local government web resources and services.